Time;durP1;ratioP1;P1;durP2;ratioP2;P2;SDS_P1;SDS_P2;PMS_P1;PMS_P2;Temp;Humidity;BMP_temperature;BMP_pressure;BME280_temperature;BME280_humidity;BME280_pressure;Samples;Min_cycle;Max_cycle;Signal;HPM_P1;HPM_P2
2023/04/27 00:00:56;;;;;;;;;;;;;;;2.80;83.71;102128.44;5000637;28;19927;-57
2023/04/27 00:03:22;;;;;;;;;;;;;;;2.78;85.33;102132.47;4998126;28;19925;-58
2023/04/27 00:05:47;;;;;;;;;;;;;;;2.78;86.26;102130.84;5002643;28;20384;-57
2023/04/27 00:08:12;;;;;;;;;;;;;;;2.80;86.07;102131.88;4998870;28;20460;-57
2023/04/27 00:10:37;;;;;;;;;;;;;;;2.82;86.55;102122.69;5007511;28;20020;-57
2023/04/27 00:13:03;;;;;;;;;;;;;;;2.81;87.13;102126.00;4999756;28;19964;-58
2023/04/27 00:15:28;;;;;;;;;;;;;;;2.89;87.62;102126.59;4998774;28;20026;-58
2023/04/27 00:17:53;;;;;;;;;;;;;;;2.87;88.08;102129.03;5006869;28;19918;-58
2023/04/27 00:20:19;;;;;;;;;;;;;;;2.87;87.53;102134.13;4998671;28;19926;-58
2023/04/27 00:22:45;;;;;;;;;;;;;;;2.86;88.52;102131.47;5001239;28;20342;-48
2023/04/27 00:25:10;;;;;;;;;;;;;;;2.84;87.47;102132.97;5001700;28;19982;-48
2023/04/27 00:27:36;;;;;;;;;;;;;;;2.79;87.46;102132.63;5004409;28;19922;-47
2023/04/27 00:30:01;;;;;;;;;;;;;;;2.76;86.63;102126.41;5011433;28;19968;-50
2023/04/27 00:32:26;;;;;;;;;;;;;;;2.72;87.22;102129.47;5002865;28;20277;-52
2023/04/27 00:34:51;;;;;;;;;;;;;;;2.66;87.82;102132.41;5001927;28;19925;-48
2023/04/27 00:37:17;;;;;;;;;;;;;;;2.63;87.69;102135.59;4995789;28;19938;-49
2023/04/27 00:39:42;;;;;;;;;;;;;;;2.61;86.95;102139.66;5007237;28;19929;-48
2023/04/27 00:42:14;;;;;;;;;;;;;;;2.59;88.22;102135.22;4999043;28;19924;-49
2023/04/27 00:44:39;;;;;;;;;;;;;;;2.59;88.38;102135.22;5002029;28;19983;-48
2023/04/27 00:47:04;;;;;;;;;;;;;;;2.55;87.49;102130.63;4993563;28;19926;-48
2023/04/27 00:49:30;;;;;;;;;;;;;;;2.51;87.90;102132.06;5015801;28;19922;-48
2023/04/27 00:51:55;;;;;;;;;;;;;;;2.49;88.71;102132.69;5001986;28;19926;-51
2023/04/27 00:54:21;;;;;;;;;;;;;;;2.46;88.23;102125.72;4994583;28;20411;-47
2023/04/27 00:56:50;;;;;;;;;;;;;;;2.42;89.00;102123.69;4993483;28;19929;-51
2023/04/27 00:59:15;;;;;;;;;;;;;;;2.39;90.06;102120.94;5009780;28;19921;-50
2023/04/27 01:01:41;;;;;;;;;;;;;;;2.39;90.25;102126.00;4986068;28;19967;-50
2023/04/27 01:04:06;;;;;;;;;;;;;;;2.39;89.39;102137.03;4988418;28;19969;-49
2023/04/27 01:06:31;;;;;;;;;;;;;;;2.36;88.78;102130.81;4990491;28;19999;-51
2023/04/27 01:08:56;;;;;;;;;;;;;;;2.27;90.20;102130.09;4995651;28;19932;-51
2023/04/27 01:11:22;;;;;;;;;;;;;;;2.26;91.46;102128.31;4997322;28;19968;-50
2023/04/27 01:13:47;;;;;;;;;;;;;;;2.26;91.43;102123.25;4999673;28;19944;-51
2023/04/27 01:16:12;;;;;;;;;;;;;;;2.29;91.01;102126.88;5000917;28;19933;-52
2023/04/27 01:18:39;;;;;;;;;;;;;;;2.27;90.79;102130.97;5000374;28;19941;-58
2023/04/27 01:21:04;;;;;;;;;;;;;;;2.22;89.69;102136.44;4992311;28;21556;-57
2023/04/27 01:23:30;;;;;;;;;;;;;;;2.13;89.18;102128.97;5002404;28;20372;-57
2023/04/27 01:25:55;;;;;;;;;;;;;;;2.06;89.10;102134.28;4994138;28;19926;-57
2023/04/27 01:28:20;;;;;;;;;;;;;;;1.98;88.97;102138.72;5004186;28;20299;-57
2023/04/27 01:30:46;;;;;;;;;;;;;;;1.92;89.42;102135.69;4995377;28;19964;-57
2023/04/27 01:33:11;;;;;;;;;;;;;;;1.87;89.24;102136.94;4997495;28;19953;-60
2023/04/27 01:35:36;;;;;;;;;;;;;;;1.82;89.25;102141.66;5005315;28;19953;-57
2023/04/27 01:38:01;;;;;;;;;;;;;;;1.78;89.93;102132.00;5001407;28;19963;-57
2023/04/27 01:40:27;;;;;;;;;;;;;;;1.76;90.35;102127.53;5006503;28;20271;-56
2023/04/27 01:42:52;;;;;;;;;;;;;;;1.75;91.78;102133.38;5001049;28;19917;-58
2023/04/27 01:45:17;;;;;;;;;;;;;;;1.76;92.49;102127.53;4996412;28;19933;-58
2023/04/27 01:47:42;;;;;;;;;;;;;;;1.82;91.95;102125.53;4993821;28;19941;-58
2023/04/27 01:50:08;;;;;;;;;;;;;;;1.89;92.88;102120.22;4995659;28;20406;-57
2023/04/27 01:52:33;;;;;;;;;;;;;;;1.90;92.44;102116.91;5012456;28;20035;-57
2023/04/27 01:54:58;;;;;;;;;;;;;;;1.97;93.27;102119.19;4995881;28;19930;-58
2023/04/27 01:57:24;;;;;;;;;;;;;;;2.07;92.78;102123.38;4989868;28;19921;-58
2023/04/27 01:59:49;;;;;;;;;;;;;;;2.15;92.40;102115.63;4996497;28;19926;-57
2023/04/27 02:02:14;;;;;;;;;;;;;;;2.23;92.13;102121.31;5012545;28;19953;-57
2023/04/27 02:04:41;;;;;;;;;;;;;;;2.29;91.94;102118.41;5006031;28;19920;-57
2023/04/27 02:07:07;;;;;;;;;;;;;;;2.32;90.61;102109.38;5008193;28;19925;-58
2023/04/27 02:09:32;;;;;;;;;;;;;;;2.32;89.97;102116.13;5011941;28;19921;-57
2023/04/27 02:11:57;;;;;;;;;;;;;;;2.27;89.90;102114.84;5011140;28;20028;-58
2023/04/27 02:14:22;;;;;;;;;;;;;;;2.23;90.98;102107.75;5004378;28;20296;-57
2023/04/27 02:16:48;;;;;;;;;;;;;;;2.23;91.79;102110.28;5011689;28;19932;-58
2023/04/27 02:19:13;;;;;;;;;;;;;;;2.27;93.58;102104.69;5006117;28;20010;-57
2023/04/27 02:21:39;;;;;;;;;;;;;;;2.32;91.00;102108.50;4995908;28;20316;-57
2023/04/27 02:24:04;;;;;;;;;;;;;;;2.35;91.09;102103.66;5000343;28;19921;-57
2023/04/27 02:26:31;;;;;;;;;;;;;;;2.37;93.04;102103.03;5000119;28;20417;-58
2023/04/27 02:28:56;;;;;;;;;;;;;;;2.41;89.58;102104.16;5008167;28;19933;-57
2023/04/27 02:31:22;;;;;;;;;;;;;;;2.46;92.99;102095.25;5006729;28;19921;-58
2023/04/27 02:33:47;;;;;;;;;;;;;;;2.48;89.95;102096.25;5005601;28;19930;-57
2023/04/27 02:36:12;;;;;;;;;;;;;;;2.48;90.23;102091.19;4998184;28;19921;-59
2023/04/27 02:38:37;;;;;;;;;;;;;;;2.46;89.47;102087.66;5008842;28;20032;-58
2023/04/27 02:41:03;;;;;;;;;;;;;;;2.47;91.15;102088.53;5005883;28;20267;-58
2023/04/27 02:43:28;;;;;;;;;;;;;;;2.49;90.59;102092.06;5002355;28;19922;-58
2023/04/27 02:45:53;;;;;;;;;;;;;;;2.53;87.98;102086.47;4997459;28;19953;-57
2023/04/27 02:48:19;;;;;;;;;;;;;;;2.51;91.08;102082.94;4988693;28;19934;-58
2023/04/27 02:50:44;;;;;;;;;;;;;;;2.53;91.67;102087.38;4992332;28;19929;-58
2023/04/27 02:53:10;;;;;;;;;;;;;;;2.55;90.06;102092.56;4994005;28;19922;-58
2023/04/27 02:55:36;;;;;;;;;;;;;;;2.53;90.27;102094.97;4990581;28;19926;-58
2023/04/27 02:58:01;;;;;;;;;;;;;;;2.50;88.72;102098.94;4987436;28;19965;-58
2023/04/27 03:00:26;;;;;;;;;;;;;;;2.49;89.39;102092.06;4988678;28;19922;-57
2023/04/27 03:02:52;;;;;;;;;;;;;;;2.47;90.38;102093.59;4985261;28;19935;-57
2023/04/27 03:05:17;;;;;;;;;;;;;;;2.45;90.74;102087.53;5005178;28;20019;-58
2023/04/27 03:07:42;;;;;;;;;;;;;;;2.43;88.25;102089.97;4982235;28;19925;-58
2023/04/27 03:10:08;;;;;;;;;;;;;;;2.40;87.64;102088.03;4989179;28;20730;-57
2023/04/27 03:12:33;;;;;;;;;;;;;;;2.37;88.88;102087.81;5001662;28;19918;-58
2023/04/27 03:14:58;;;;;;;;;;;;;;;2.37;89.57;102094.53;4986603;28;19932;-57
2023/04/27 03:17:24;;;;;;;;;;;;;;;2.33;89.75;102090.84;4986059;28;20367;-57
2023/04/27 03:19:49;;;;;;;;;;;;;;;2.30;90.63;102090.59;4985389;28;19979;-57
2023/04/27 03:22:14;;;;;;;;;;;;;;;2.31;93.28;102091.50;4985533;28;19983;-58
2023/04/27 03:24:40;;;;;;;;;;;;;;;2.32;90.87;102098.34;5003779;28;20392;-58
2023/04/27 03:27:05;;;;;;;;;;;;;;;2.31;90.96;102101.66;4986656;28;19928;-58
2023/04/27 03:29:30;;;;;;;;;;;;;;;2.30;92.90;102104.94;4999117;28;19929;-58
2023/04/27 03:31:56;;;;;;;;;;;;;;;2.31;89.14;102104.19;4987434;28;20323;-57
2023/04/27 03:34:22;;;;;;;;;;;;;;;2.32;89.92;102111.94;5009802;28;19936;-57
2023/04/27 03:36:47;;;;;;;;;;;;;;;2.32;89.84;102109.38;5004421;28;20008;-57
2023/04/27 03:39:13;;;;;;;;;;;;;;;2.33;89.37;102110.28;5004412;28;20042;-58
2023/04/27 03:41:38;;;;;;;;;;;;;;;2.33;89.24;102112.81;5005810;28;19932;-56
2023/04/27 03:44:03;;;;;;;;;;;;;;;2.30;90.56;102117.63;5000750;28;19976;-58
2023/04/27 03:46:28;;;;;;;;;;;;;;;2.26;89.99;102111.44;5003600;28;19929;-58
2023/04/27 03:48:54;;;;;;;;;;;;;;;2.27;89.34;102112.31;5001621;28;19930;-58
2023/04/27 03:51:19;;;;;;;;;;;;;;;2.27;90.07;102114.84;5000919;28;19929;-58
2023/04/27 03:53:44;;;;;;;;;;;;;;;2.24;89.51;102109.50;5011250;28;19964;-58
2023/04/27 03:56:10;;;;;;;;;;;;;;;2.23;91.36;102111.16;4994629;28;19975;-58
2023/04/27 03:58:35;;;;;;;;;;;;;;;2.22;90.38;102116.13;4998575;28;20368;-58
2023/04/27 04:01:00;;;;;;;;;;;;;;;2.23;91.92;102117.91;5000322;28;19928;-58
2023/04/27 04:03:25;;;;;;;;;;;;;;;2.18;90.42;102109.91;5078201;28;19958;-57
2023/04/27 04:05:51;;;;;;;;;;;;;;;2.18;89.16;102114.09;5011693;28;19925;-58
2023/04/27 04:08:16;;;;;;;;;;;;;;;2.19;90.41;102118.44;5001717;28;19930;-57
2023/04/27 04:10:41;;;;;;;;;;;;;;;2.17;90.37;102119.94;5009701;28;19992;-58
2023/04/27 04:13:06;;;;;;;;;;;;;;;2.20;90.39;102122.75;4994094;28;19947;-58
2023/04/27 04:15:32;;;;;;;;;;;;;;;2.16;90.09;102116.50;5006803;28;19930;-57
2023/04/27 04:17:57;;;;;;;;;;;;;;;2.18;88.47;102114.97;4994375;28;19983;-58
2023/04/27 04:20:22;;;;;;;;;;;;;;;2.20;90.73;102117.66;4991975;28;19922;-59
2023/04/27 04:22:47;;;;;;;;;;;;;;;2.20;91.20;102118.56;5022782;28;19918;-58
2023/04/27 04:25:13;;;;;;;;;;;;;;;2.25;89.13;102124.88;5007561;28;19988;-58
2023/04/27 04:27:38;;;;;;;;;;;;;;;2.24;92.31;102120.56;4989694;28;19928;-57
2023/04/27 04:30:05;;;;;;;;;;;;;;;2.25;90.68;102126.53;4993629;28;20428;-58
2023/04/27 04:32:30;;;;;;;;;;;;;;;2.29;90.91;102131.09;4986314;28;19898;-57
2023/04/27 04:34:55;;;;;;;;;;;;;;;2.32;89.57;102134.78;4989218;28;19926;-57
2023/04/27 04:37:21;;;;;;;;;;;;;;;2.34;89.43;102138.31;4989169;28;20572;-58
2023/04/27 04:39:47;;;;;;;;;;;;;;;2.35;91.07;102131.59;4999229;28;19928;-58
2023/04/27 04:42:12;;;;;;;;;;;;;;;2.39;90.14;102128.53;4990120;28;19922;-58
2023/04/27 04:44:37;;;;;;;;;;;;;;;2.39;88.40;102138.69;5015753;28;19916;-57
2023/04/27 04:47:03;;;;;;;;;;;;;;;2.42;88.68;102146.53;4999245;28;19967;-57
2023/04/27 04:49:28;;;;;;;;;;;;;;;2.46;90.04;102145.16;4990855;28;19928;-58
2023/04/27 04:51:53;;;;;;;;;;;;;;;2.48;88.83;102146.16;5014189;28;20631;-58
2023/04/27 04:54:19;;;;;;;;;;;;;;;2.51;89.70;102147.31;4991484;28;19926;-58
2023/04/27 04:56:44;;;;;;;;;;;;;;;2.57;90.32;102146.91;5005982;28;19926;-58
2023/04/27 04:59:10;;;;;;;;;;;;;;;2.64;89.68;102149.16;4993843;28;19934;-58
2023/04/27 05:01:35;;;;;;;;;;;;;;;2.68;89.87;102149.56;5013747;28;19933;-58
2023/04/27 05:04:00;;;;;;;;;;;;;;;2.88;90.90;102146.03;5009375;28;19987;-58
2023/04/27 05:06:26;;;;;;;;;;;;;;;3.45;87.73;102153.00;4997770;28;19923;-57
2023/04/27 05:08:51;;;;;;;;;;;;;;;4.06;87.34;102150.03;4992182;28;19917;-58
2023/04/27 05:11:17;;;;;;;;;;;;;;;4.62;84.71;102153.34;4998839;28;20296;-58
2023/04/27 05:13:42;;;;;;;;;;;;;;;4.97;83.55;102149.84;4987499;28;20000;-57
2023/04/27 05:16:07;;;;;;;;;;;;;;;5.29;82.57;102142.81;4995273;28;20387;-58
2023/04/27 05:18:33;;;;;;;;;;;;;;;5.55;80.88;102148.84;4991994;28;20404;-58
2023/04/27 05:20:58;;;;;;;;;;;;;;;5.68;81.43;102148.00;4980677;28;20173;-58
2023/04/27 05:23:23;;;;;;;;;;;;;;;5.88;80.21;102146.03;4986202;28;19922;-59
2023/04/27 05:25:48;;;;;;;;;;;;;;;6.11;79.24;102139.91;4982462;28;19934;-59
2023/04/27 05:28:15;;;;;;;;;;;;;;;6.41;77.98;102138.50;4982140;28;19922;-59
2023/04/27 05:30:40;;;;;;;;;;;;;;;6.72;77.38;102145.56;4987921;28;19918;-58
2023/04/27 05:33:06;;;;;;;;;;;;;;;6.91;76.47;102138.28;4995157;28;20008;-58
2023/04/27 05:35:31;;;;;;;;;;;;;;;7.23;76.20;102147.09;4998373;28;19926;-59
2023/04/27 05:37:56;;;;;;;;;;;;;;;7.43;74.26;102149.22;4983920;28;19928;-58
2023/04/27 05:40:22;;;;;;;;;;;;;;;7.53;75.12;102149.00;4980602;28;19922;-58
2023/04/27 05:42:47;;;;;;;;;;;;;;;7.58;73.30;102153.47;4987916;28;19942;-58
2023/04/27 05:45:13;;;;;;;;;;;;;;;7.52;75.80;102152.34;4985081;28;20299;-58
2023/04/27 05:47:38;;;;;;;;;;;;;;;7.46;74.17;102151.97;4988840;28;20288;-58
2023/04/27 05:50:04;;;;;;;;;;;;;;;7.22;75.73;102148.78;4997324;28;20018;-59
2023/04/27 05:52:30;;;;;;;;;;;;;;;7.12;73.68;102148.09;4995015;28;19922;-59
2023/04/27 05:54:55;;;;;;;;;;;;;;;7.05;73.41;102153.63;4991723;28;20300;-52
2023/04/27 05:57:21;;;;;;;;;;;;;;;6.86;73.14;102160.16;4997574;28;19922;-50
2023/04/27 05:59:46;;;;;;;;;;;;;;;6.81;74.99;102153.84;4984129;28;20460;-52
2023/04/27 06:02:11;;;;;;;;;;;;;;;6.89;73.92;102162.00;4990030;28;19939;-53
2023/04/27 06:04:37;;;;;;;;;;;;;;;6.88;73.95;102158.56;4991572;28;20391;-52
2023/04/27 06:07:11;;;;;;;;;;;;;;;7.09;74.19;102150.47;4996690;28;19922;-51
2023/04/27 06:09:37;;;;;;;;;;;;;;;7.22;73.78;102151.34;4984669;28;19917;-53
2023/04/27 06:12:03;;;;;;;;;;;;;;;7.38;73.67;102158.28;4975778;28;20292;-44
2023/04/27 06:14:29;;;;;;;;;;;;;;;7.55;74.33;102161.88;4986100;28;20514;-43
2023/04/27 06:16:54;;;;;;;;;;;;;;;7.56;73.86;102158.50;4991561;28;19964;-42
2023/04/27 06:19:19;;;;;;;;;;;;;;;7.49;72.46;102156.38;4991945;28;19926;-42
2023/04/27 06:21:45;;;;;;;;;;;;;;;7.47;72.31;102153.72;4990281;28;19922;-42
2023/04/27 06:24:10;;;;;;;;;;;;;;;7.57;70.77;102156.84;4989166;28;20348;-44
2023/04/27 06:26:35;;;;;;;;;;;;;;;7.64;69.21;102153.84;4989192;28;19918;-43
2023/04/27 06:29:02;;;;;;;;;;;;;;;7.64;69.62;102153.84;4991666;28;20395;-43
2023/04/27 06:31:28;;;;;;;;;;;;;;;7.80;68.74;102154.00;5004986;28;19922;-44
2023/04/27 06:33:53;;;;;;;;;;;;;;;7.89;69.23;102156.22;5007879;28;19967;-43
2023/04/27 06:36:19;;;;;;;;;;;;;;;8.20;67.91;102158.91;5079925;28;19922;-43
2023/04/27 06:38:45;;;;;;;;;;;;;;;8.52;63.66;102164.22;4992336;28;19929;-43
2023/04/27 06:41:10;;;;;;;;;;;;;;;8.43;65.47;102155.13;5013303;28;19922;-45
2023/04/27 06:43:35;;;;;;;;;;;;;;;8.37;63.46;102165.91;4987890;28;19925;-44
2023/04/27 06:46:00;;;;;;;;;;;;;;;8.45;64.79;102157.00;4996611;28;19934;-46
2023/04/27 06:48:26;;;;;;;;;;;;;;;8.54;61.80;102159.19;4993609;28;20280;-44
2023/04/27 06:50:51;;;;;;;;;;;;;;;8.47;62.31;102150.25;4998618;28;19929;-45
2023/04/27 06:53:16;;;;;;;;;;;;;;;8.49;63.29;102151.25;5004795;28;19925;-44
2023/04/27 06:55:42;;;;;;;;;;;;;;;8.54;61.90;102152.38;4999791;28;20316;-45
2023/04/27 06:58:07;;;;;;;;;;;;;;;8.73;62.50;102146.59;4991844;28;19914;-47
2023/04/27 07:00:32;;;;;;;;;;;;;;;8.72;63.03;102146.53;4992597;28;19924;-44
2023/04/27 07:02:57;;;;;;;;;;;;;;;8.81;64.04;102145.38;4995122;28;19918;-43
2023/04/27 07:05:23;;;;;;;;;;;;;;;9.08;62.94;102151.13;4994016;28;19922;-45
2023/04/27 07:07:48;;;;;;;;;;;;;;;9.37;61.02;102155.25;4993105;28;19922;-44
2023/04/27 07:10:13;;;;;;;;;;;;;;;9.45;60.08;102149.63;4993711;28;19926;-46
2023/04/27 07:12:39;;;;;;;;;;;;;;;9.07;59.57;102149.34;4997332;28;19929;-43
2023/04/27 07:15:05;;;;;;;;;;;;;;;9.03;59.87;102157.66;4994776;28;19930;-44
2023/04/27 07:17:30;;;;;;;;;;;;;;;8.87;59.15;102155.09;4986196;28;19966;-44
2023/04/27 07:19:56;;;;;;;;;;;;;;;8.82;60.98;102149.69;4984834;28;19921;-45
2023/04/27 07:22:21;;;;;;;;;;;;;;;8.94;61.47;102151.16;4997280;28;20354;-43
2023/04/27 07:24:47;;;;;;;;;;;;;;;9.00;60.87;102149.81;4991614;28;19973;-46
2023/04/27 07:27:13;;;;;;;;;;;;;;;9.11;61.75;102151.28;4990259;28;19928;-46
2023/04/27 07:29:39;;;;;;;;;;;;;;;9.39;60.91;102147.63;4994154;28;19998;-43
2023/04/27 07:32:05;;;;;;;;;;;;;;;9.55;60.89;102151.91;4995280;28;20027;-45
2023/04/27 07:34:30;;;;;;;;;;;;;;;9.67;59.40;102153.44;5015888;28;19926;-44
2023/04/27 07:36:56;;;;;;;;;;;;;;;9.68;59.41;102149.16;4993235;28;19926;-45
2023/04/27 07:39:21;;;;;;;;;;;;;;;9.71;59.11;102148.44;5031772;28;19970;-43
2023/04/27 07:41:47;;;;;;;;;;;;;;;9.62;59.85;102143.72;4995146;28;20288;-45
2023/04/27 07:44:12;;;;;;;;;;;;;;;9.68;59.63;102152.63;5007135;28;20378;-43
2023/04/27 07:46:37;;;;;;;;;;;;;;;9.75;58.84;102145.22;5000904;28;19958;-44
2023/04/27 07:49:03;;;;;;;;;;;;;;;9.65;60.16;102149.91;4992560;28;20009;-43
2023/04/27 07:51:28;;;;;;;;;;;;;;;9.79;58.63;102149.72;4989185;28;20300;-44
2023/04/27 07:53:56;;;;;;;;;;;;;;;9.74;59.50;102149.50;4985442;28;19934;-44
2023/04/27 07:56:21;;;;;;;;;;;;;;;9.78;58.71;102154.00;4988788;28;19933;-45
2023/04/27 07:58:46;;;;;;;;;;;;;;;9.81;61.12;102153.25;4997882;28;20373;-45
2023/04/27 08:01:12;;;;;;;;;;;;;;;9.97;60.68;102144.66;4997369;28;20024;-44
2023/04/27 08:03:37;;;;;;;;;;;;;;;10.08;60.17;102143.53;5013564;28;19922;-46
2023/04/27 08:06:03;;;;;;;;;;;;;;;10.24;59.48;102140.91;5006026;28;19933;-44
2023/04/27 08:08:29;;;;;;;;;;;;;;;10.36;59.35;102138.06;4992876;28;20021;-44
2023/04/27 08:10:54;;;;;;;;;;;;;;;10.50;56.91;102144.78;5013021;28;19916;-47
2023/04/27 08:13:19;;;;;;;;;;;;;;;10.50;58.41;102144.78;4993796;28;19927;-44
2023/04/27 08:15:44;;;;;;;;;;;;;;;10.64;57.52;102141.19;4989291;28;20308;-44
2023/04/27 08:18:10;;;;;;;;;;;;;;;10.70;57.89;102144.06;4987644;28;19968;-44
2023/04/27 08:20:35;;;;;;;;;;;;;;;10.69;55.43;102142.28;4985457;28;19925;-45
2023/04/27 08:23:00;;;;;;;;;;;;;;;10.53;58.73;102152.66;5093498;28;19924;-44
2023/04/27 08:25:26;;;;;;;;;;;;;;;10.64;55.74;102148.91;4990418;28;19926;-45
2023/04/27 08:27:51;;;;;;;;;;;;;;;10.43;55.88;102143.63;4981844;28;19922;-44
2023/04/27 08:30:16;;;;;;;;;;;;;;;10.26;56.90;102143.59;4997387;28;20161;-47
2023/04/27 08:32:41;;;;;;;;;;;;;;;10.35;55.78;102133.75;5006803;28;19916;-44
2023/04/27 08:35:07;;;;;;;;;;;;;;;10.31;56.40;102131.81;4991948;28;19902;-51
2023/04/27 08:37:32;;;;;;;;;;;;;;;10.46;54.33;102127.44;4994200;28;19929;-52
2023/04/27 08:39:58;;;;;;;;;;;;;;;10.50;54.73;102119.06;5020955;28;19921;-54
2023/04/27 08:42:24;;;;;;;;;;;;;;;10.59;55.49;102121.19;4990368;28;19933;-52
2023/04/27 08:44:49;;;;;;;;;;;;;;;10.54;55.01;102125.22;4997792;28;19940;-52
2023/04/27 08:47:15;;;;;;;;;;;;;;;10.56;55.52;102115.91;4992241;28;19922;-49
2023/04/27 08:49:40;;;;;;;;;;;;;;;10.72;53.69;102115.81;4996531;28;19988;-51
2023/04/27 08:52:12;;;;;;;;;;;;;;;10.70;52.26;102122.59;5018293;28;20052;-49
2023/04/27 08:54:38;;;;;;;;;;;;;;;10.47;53.47;102113.78;4993145;28;19933;-48
2023/04/27 08:57:07;;;;;;;;;;;;;;;10.45;54.36;102125.69;4998841;28;19922;-48
2023/04/27 08:59:35;;;;;;;;;;;;;;;10.46;54.81;102127.44;4988304;28;20382;-52
2023/04/27 09:02:00;;;;;;;;;;;;;;;10.69;51.92;102131.13;4988865;28;19921;-51
2023/04/27 09:04:35;;;;;;;;;;;;;;;10.70;52.66;102115.75;5003443;28;19941;-51
2023/04/27 09:07:08;;;;;;;;;;;;;;;10.72;50.24;102124.41;4990760;28;20016;-51
2023/04/27 09:09:34;;;;;;;;;;;;;;;10.90;50.91;102126.09;4993836;28;20295;-52
2023/04/27 09:11:59;;;;;;;;;;;;;;;10.74;50.97;102120.25;4988457;28;20436;-52
2023/04/27 09:14:24;;;;;;;;;;;;;;;10.67;49.42;102119.84;4992508;28;19928;-52
2023/04/27 09:16:57;;;;;;;;;;;;;;;10.63;50.23;102121.44;4991475;28;19925;-51
2023/04/27 09:19:23;;;;;;;;;;;;;;;10.70;48.58;102123.47;4985105;28;19963;-51
2023/04/27 09:21:50;;;;;;;;;;;;;;;10.65;49.39;102124.94;5000860;28;19973;-50
2023/04/27 09:24:15;;;;;;;;;;;;;;;10.70;50.11;102123.47;4991353;28;20376;-45
2023/04/27 09:26:48;;;;;;;;;;;;;;;10.89;49.02;102127.78;5012570;28;19906;-44
2023/04/27 09:29:13;;;;;;;;;;;;;;;10.88;49.13;102122.59;4991348;28;19918;-44
2023/04/27 09:31:39;;;;;;;;;;;;;;;11.02;50.05;102118.94;4992933;28;20391;-44
2023/04/27 09:34:04;;;;;;;;;;;;;;;11.15;49.65;102115.25;4982994;28;19926;-44
2023/04/27 09:36:31;;;;;;;;;;;;;;;11.22;49.81;102114.69;4987752;28;20026;-44
2023/04/27 09:38:56;;;;;;;;;;;;;;;11.14;49.12;102113.47;4989599;28;20687;-43
2023/04/27 09:41:22;;;;;;;;;;;;;;;11.09;49.31;102114.97;4988878;28;19998;-47
2023/04/27 09:43:47;;;;;;;;;;;;;;;11.07;51.62;102102.03;5010149;28;19930;-43
2023/04/27 09:46:13;;;;;;;;;;;;;;;11.18;48.22;102105.97;4990323;28;19927;-51
2023/04/27 09:48:39;;;;;;;;;;;;;;;11.20;48.37;102093.16;4996995;28;20372;-49
2023/04/27 09:51:05;;;;;;;;;;;;;;;11.17;47.94;102100.75;4992101;28;20307;-49
2023/04/27 09:53:45;;;;;;;;;;;;;;;11.35;49.26;102099.00;4992176;28;19918;-48
2023/04/27 09:56:13;;;;;;;;;;;;;;;11.43;48.03;102100.22;4986866;28;20369;-49
2023/04/27 09:58:57;;;;;;;;;;;;;;;11.35;43.34;102100.72;5000960;28;19914;-49
2023/04/27 10:01:29;;;;;;;;;;;;;;;11.25;46.31;102095.13;4990840;28;19936;-48
2023/04/27 10:04:13;;;;;;;;;;;;;;;11.35;45.35;102098.13;4987769;28;20395;-49
2023/04/27 10:06:41;;;;;;;;;;;;;;;11.45;46.17;102097.72;4984385;28;19979;-51
2023/04/27 10:09:07;;;;;;;;;;;;;;;11.55;46.82;102089.59;4980607;28;19918;-52
2023/04/27 10:11:38;;;;;;;;;;;;;;;11.64;47.75;102091.66;4994340;28;19929;-48
2023/04/27 10:14:08;;;;;;;;;;;;;;;11.67;46.79;102091.81;4990858;28;20017;-50
2023/04/27 10:16:46;;;;;;;;;;;;;;;11.72;45.26;102092.88;4989050;28;19966;-51
2023/04/27 10:19:12;;;;;;;;;;;;;;;11.74;45.04;102098.97;4990621;28;19914;-50
2023/04/27 10:21:37;;;;;;;;;;;;;;;11.63;42.47;102107.94;4986311;28;19935;-51
2023/04/27 10:24:07;;;;;;;;;;;;;;;11.61;43.92;102102.72;4986072;28;19932;-52
2023/04/27 10:26:32;;;;;;;;;;;;;;;11.53;44.81;102101.53;4992393;28;19959;-52
2023/04/27 10:29:03;;;;;;;;;;;;;;;11.56;44.17;102091.34;4990568;28;20058;-51
2023/04/27 10:31:28;;;;;;;;;;;;;;;11.65;45.25;102096.00;4992811;28;19970;-51
2023/04/27 10:34:04;;;;;;;;;;;;;;;11.66;43.08;102095.19;4992578;28;19925;-46
2023/04/27 10:36:33;;;;;;;;;;;;;;;11.70;43.26;102103.09;5009410;28;20372;-46
2023/04/27 10:38:59;;;;;;;;;;;;;;;11.74;43.60;102099.84;5004133;28;19918;-43
2023/04/27 10:41:32;;;;;;;;;;;;;;;11.66;42.86;102096.09;4989781;28;19917;-47
2023/04/27 10:44:12;;;;;;;;;;;;;;;11.68;43.48;102093.56;4992900;28;20374;-44
2023/04/27 10:46:48;;;;;;;;;;;;;;;11.70;44.18;102089.34;5003819;28;19973;-47
2023/04/27 10:49:14;;;;;;;;;;;;;;;11.84;42.98;102085.72;5009244;28;20024;-45
2023/04/27 10:51:40;;;;;;;;;;;;;;;11.87;44.77;102077.22;4993701;28;20411;-46
2023/04/27 10:54:05;;;;;;;;;;;;;;;11.98;43.58;102083.72;4991980;28;20021;-44
2023/04/27 10:56:31;;;;;;;;;;;;;;;12.07;44.13;102084.06;5021049;28;19954;-45
2023/04/27 10:59:01;;;;;;;;;;;;;;;12.25;44.53;102056.47;4990012;28;19921;-45
2023/04/27 11:01:28;;;;;;;;;;;;;;;12.31;43.26;102072.19;5012491;28;20203;-48
2023/04/27 11:03:56;;;;;;;;;;;;;;;12.39;42.18;102069.06;4993666;28;19976;-47
2023/04/27 11:06:22;;;;;;;;;;;;;;;12.28;41.51;102060.88;5014856;28;19961;-46
2023/04/27 11:08:47;;;;;;;;;;;;;;;12.25;44.43;102056.47;5010703;28;19961;-44
2023/04/27 11:11:16;;;;;;;;;;;;;;;12.35;44.27;102050.84;4993715;28;19926;-45
2023/04/27 11:13:42;;;;;;;;;;;;;;;12.50;41.15;102052.31;4991794;28;19947;-47
2023/04/27 11:16:07;;;;;;;;;;;;;;;12.45;42.56;102046.06;4990423;28;19925;-44
2023/04/27 11:18:35;;;;;;;;;;;;;;;12.46;40.48;102050.41;4985223;28;19919;-45
2023/04/27 11:21:11;;;;;;;;;;;;;;;12.31;41.42;102042.94;4990735;28;20004;-45
2023/04/27 11:23:37;;;;;;;;;;;;;;;12.43;41.19;102035.66;5001313;28;19955;-44
2023/04/27 11:26:15;;;;;;;;;;;;;;;12.61;42.06;102033.81;4992109;28;20389;-45
2023/04/27 11:29:02;;;;;;;;;;;;;;;12.63;42.34;102038.16;4986270;28;20395;-47
2023/04/27 11:31:37;;;;;;;;;;;;;;;12.54;42.90;102028.34;4991724;28;19928;-45
2023/04/27 11:34:02;;;;;;;;;;;;;;;12.74;42.02;102032.59;4994207;28;20018;-46
2023/04/27 11:36:28;;;;;;;;;;;;;;;12.84;41.97;102034.69;5007923;28;20338;-47
2023/04/27 11:38:57;;;;;;;;;;;;;;;12.80;42.19;102027.66;4992159;28;19925;-46
2023/04/27 11:41:31;;;;;;;;;;;;;;;12.98;41.04;102029.16;4991827;28;20009;-46
2023/04/27 11:44:02;;;;;;;;;;;;;;;12.98;39.42;102018.81;4991590;28;19971;-45
2023/04/27 11:46:27;;;;;;;;;;;;;;;12.89;39.29;102016.78;4991614;28;20022;-46
2023/04/27 11:48:59;;;;;;;;;;;;;;;12.84;40.28;102016.59;4992871;28;20218;-44
2023/04/27 11:51:25;;;;;;;;;;;;;;;12.75;41.25;102016.28;4986648;28;19927;-45
2023/04/27 11:53:51;;;;;;;;;;;;;;;12.70;39.35;102022.09;5023052;28;19914;-44
2023/04/27 11:56:16;;;;;;;;;;;;;;;12.81;40.92;102019.09;5004583;28;20017;-44
2023/04/27 11:58:44;;;;;;;;;;;;;;;12.78;39.36;102015.50;4992280;28;20429;-46
2023/04/27 12:01:10;;;;;;;;;;;;;;;12.84;39.37;102024.34;5003845;28;19917;-47
2023/04/27 12:03:36;;;;;;;;;;;;;;;12.90;40.35;102008.22;4994501;28;19914;-45
2023/04/27 12:06:01;;;;;;;;;;;;;;;12.98;37.42;102016.22;4998812;28;19926;-45
2023/04/27 12:08:26;;;;;;;;;;;;;;;12.86;38.21;102011.50;4993272;28;19978;-43
2023/04/27 12:10:52;;;;;;;;;;;;;;;12.87;37.73;102008.13;4993352;28;20293;-45
2023/04/27 12:13:17;;;;;;;;;;;;;;;12.82;38.03;102012.22;4994856;28;19979;-46
2023/04/27 12:15:42;;;;;;;;;;;;;;;12.89;37.79;102007.34;4992930;28;19983;-44
2023/04/27 12:18:08;;;;;;;;;;;;;;;12.98;37.35;102005.91;4997516;28;20328;-44
2023/04/27 12:20:33;;;;;;;;;;;;;;;13.01;37.02;102001.75;4999757;28;19914;-44
2023/04/27 12:22:59;;;;;;;;;;;;;;;12.96;39.83;101998.13;5008287;28;20363;-44
2023/04/27 12:25:25;;;;;;;;;;;;;;;13.05;39.91;101990.72;4981907;28;19922;-45
2023/04/27 12:27:50;;;;;;;;;;;;;;;13.15;38.85;101979.00;4990447;28;19917;-46
2023/04/27 12:30:16;;;;;;;;;;;;;;;13.29;38.20;101983.00;4999185;28;19914;-45
2023/04/27 12:32:41;;;;;;;;;;;;;;;13.32;37.68;101990.81;4991983;28;20040;-44
2023/04/27 12:35:07;;;;;;;;;;;;;;;13.24;38.87;101984.53;4992516;28;19969;-47
2023/04/27 12:37:32;;;;;;;;;;;;;;;13.26;38.92;101982.88;4994233;28;19918;-44